Time;durP1;ratioP1;P1;durP2;ratioP2;P2;SDS_P1;SDS_P2;PMS_P1;PMS_P2;Temp;Humidity;BMP_temperature;BMP_pressure;BME280_temperature;BME280_humidity;BME280_pressure;Samples;Min_cycle;Max_cycle;Signal;HPM_P1;HPM_P2
2019/06/02 00:00:36;;;;;;;8.849999;6.5;;;;;;;13.03;81.18555;95629.43;;;;
2019/06/02 00:01:38;;;;;;;8.849999;6.5;;;;;;;13.03;81.18555;95629.43;;;;
2019/06/02 00:02:39;;;;;;;8.849999;6.5;;;;;;;13.03;81.18555;95629.43;;;;
2019/06/02 00:03:40;;;;;;;8.849999;6.5;;;;;;;13.03;81.18555;95629.43;;;;
2019/06/02 00:04:41;;;;;;;8.849999;6.5;;;;;;;13.03;81.18555;95629.43;;;;
2019/06/02 00:05:42;;;;;;;8.849999;6.5;;;;;;;13.03;81.18555;95629.43;;;;
2019/06/02 00:06:43;;;;;;;8.849999;6.5;;;;;;;13.03;81.18555;95629.43;;;;
2019/06/02 00:07:44;;;;;;;8.849999;6.5;;;;;;;13.03;81.18555;95629.43;;;;
2019/06/02 00:08:45;;;;;;;8.3;6.35;;;;;;;12.77;82.75684;95607.34;;;;
2019/06/02 00:09:46;;;;;;;8.3;6.35;;;;;;;12.77;82.75684;95607.34;;;;
2019/06/02 00:10:47;;;;;;;8.3;6.35;;;;;;;12.77;82.75684;95607.34;;;;
2019/06/02 00:11:48;;;;;;;8.3;6.35;;;;;;;12.77;82.75684;95607.34;;;;
2019/06/02 00:12:49;;;;;;;8.3;6.35;;;;;;;12.77;82.75684;95607.34;;;;
2019/06/02 00:13:51;;;;;;;8.3;6.35;;;;;;;12.77;82.75684;95607.34;;;;
2019/06/02 00:14:52;;;;;;;8.3;6.35;;;;;;;12.77;82.75684;95607.34;;;;
2019/06/02 00:15:53;;;;;;;8.3;6.35;;;;;;;12.77;82.75684;95607.34;;;;
2019/06/02 00:16:54;;;;;;;8.3;6.35;;;;;;;12.77;82.75684;95607.34;;;;
2019/06/02 00:17:55;;;;;;;8.3;6.35;;;;;;;12.77;82.75684;95607.34;;;;
2019/06/02 00:18:56;;;;;;;8.3;6.35;;;;;;;12.77;82.75684;95607.34;;;;
2019/06/02 00:19:57;;;;;;;7.400001;6.649999;;;;;;;12.66;83.31738;95598.33;;;;
2019/06/02 00:20:58;;;;;;;7.400001;6.649999;;;;;;;12.66;83.31738;95598.33;;;;
2019/06/02 00:21:59;;;;;;;7.400001;6.649999;;;;;;;12.66;83.31738;95598.33;;;;
2019/06/02 00:23:00;;;;;;;7.400001;6.649999;;;;;;;12.66;83.31738;95598.33;;;;
2019/06/02 00:24:01;;;;;;;7.400001;6.649999;;;;;;;12.66;83.31738;95598.33;;;;
2019/06/02 00:25:02;;;;;;;7.400001;6.649999;;;;;;;12.66;83.31738;95598.33;;;;
2019/06/02 00:26:03;;;;;;;7.400001;6.649999;;;;;;;12.66;83.31738;95598.33;;;;
2019/06/02 00:27:04;;;;;;;7.400001;6.649999;;;;;;;12.66;83.31738;95598.33;;;;
2019/06/02 00:28:05;;;;;;;7.400001;6.649999;;;;;;;12.66;83.31738;95598.33;;;;
2019/06/02 00:29:07;;;;;;;7.400001;6.649999;;;;;;;12.66;83.31738;95598.33;;;;
2019/06/02 00:30:08;;;;;;;8.499999;6.850001;;;;;;;12.48;83.81738;95594.44;;;;
2019/06/02 00:31:09;;;;;;;8.499999;6.850001;;;;;;;12.48;83.81738;95594.44;;;;
2019/06/02 00:32:10;;;;;;;8.499999;6.850001;;;;;;;12.48;83.81738;95594.44;;;;
2019/06/02 00:33:11;;;;;;;8.499999;6.850001;;;;;;;12.48;83.81738;95594.44;;;;
2019/06/02 00:34:12;;;;;;;8.499999;6.850001;;;;;;;12.48;83.81738;95594.44;;;;
2019/06/02 00:35:13;;;;;;;8.499999;6.850001;;;;;;;12.48;83.81738;95594.44;;;;
2019/06/02 00:36:14;;;;;;;8.499999;6.850001;;;;;;;12.48;83.81738;95594.44;;;;
2019/06/02 00:37:15;;;;;;;8.499999;6.850001;;;;;;;12.48;83.81738;95594.44;;;;
2019/06/02 00:38:16;;;;;;;8.499999;6.850001;;;;;;;12.48;83.81738;95594.44;;;;
2019/06/02 00:39:17;;;;;;;8.499999;6.850001;;;;;;;12.48;83.81738;95594.44;;;;
2019/06/02 00:40:18;;;;;;;8.499999;6.850001;;;;;;;12.48;83.81738;95594.44;;;;
2019/06/02 00:41:19;;;;;;;8.050001;7;;;;;;;12.35;84.46875;95589.29;;;;
2019/06/02 00:42:21;;;;;;;8.050001;7;;;;;;;12.35;84.46875;95589.29;;;;
2019/06/02 00:43:22;;;;;;;8.050001;7;;;;;;;12.35;84.46875;95589.29;;;;
2019/06/02 00:44:23;;;;;;;8.050001;7;;;;;;;12.35;84.46875;95589.29;;;;
2019/06/02 00:45:24;;;;;;;8.050001;7;;;;;;;12.35;84.46875;95589.29;;;;
2019/06/02 00:46:25;;;;;;;8.050001;7;;;;;;;12.35;84.46875;95589.29;;;;
2019/06/02 00:47:26;;;;;;;8.050001;7;;;;;;;12.35;84.46875;95589.29;;;;
2019/06/02 00:48:27;;;;;;;8.050001;7;;;;;;;12.35;84.46875;95589.29;;;;
2019/06/02 00:49:28;;;;;;;8.050001;7;;;;;;;12.35;84.46875;95589.29;;;;
2019/06/02 00:50:29;;;;;;;8.050001;7;;;;;;;12.35;84.46875;95589.29;;;;
2019/06/02 00:51:30;;;;;;;8.700001;7.35;;;;;;;12.15;85.00684;95595.1;;;;
2019/06/02 00:52:31;;;;;;;8.700001;7.35;;;;;;;12.15;85.00684;95595.1;;;;
2019/06/02 00:53:33;;;;;;;8.700001;7.35;;;;;;;12.15;85.00684;95595.1;;;;
2019/06/02 00:54:34;;;;;;;8.700001;7.35;;;;;;;12.15;85.00684;95595.1;;;;
2019/06/02 00:55:35;;;;;;;8.700001;7.35;;;;;;;12.15;85.00684;95595.1;;;;
2019/06/02 00:56:36;;;;;;;8.700001;7.35;;;;;;;12.15;85.00684;95595.1;;;;
2019/06/02 00:57:37;;;;;;;8.700001;7.35;;;;;;;12.15;85.00684;95595.1;;;;
2019/06/02 00:58:38;;;;;;;8.700001;7.35;;;;;;;12.15;85.00684;95595.1;;;;
2019/06/02 00:59:39;;;;;;;8.700001;7.35;;;;;;;12.15;85.00684;95595.1;;;;
2019/06/02 01:00:40;;;;;;;8.700001;7.35;;;;;;;12.15;85.00684;95595.1;;;;
2019/06/02 01:01:41;;;;;;;9.900001;8.050001;;;;;;;12.03;85.66992;95586.19;;;;
2019/06/02 01:02:42;;;;;;;9.900001;8.050001;;;;;;;12.03;85.66992;95586.19;;;;
2019/06/02 01:03:44;;;;;;;9.900001;8.050001;;;;;;;12.03;85.66992;95586.19;;;;
2019/06/02 01:04:45;;;;;;;9.900001;8.050001;;;;;;;12.03;85.66992;95586.19;;;;
2019/06/02 01:05:46;;;;;;;9.900001;8.050001;;;;;;;12.03;85.66992;95586.19;;;;
2019/06/02 01:06:47;;;;;;;9.900001;8.050001;;;;;;;12.03;85.66992;95586.19;;;;
2019/06/02 01:07:48;;;;;;;9.900001;8.050001;;;;;;;12.03;85.66992;95586.19;;;;
2019/06/02 01:08:50;;;;;;;9.900001;8.050001;;;;;;;12.03;85.66992;95586.19;;;;
2019/06/02 01:09:51;;;;;;;9.900001;8.050001;;;;;;;12.03;85.66992;95586.19;;;;
2019/06/02 01:10:52;;;;;;;9.900001;8.050001;;;;;;;12.03;85.66992;95586.19;;;;
2019/06/02 01:11:53;;;;;;;9.900001;8.050001;;;;;;;12.03;85.66992;95586.19;;;;
2019/06/02 01:12:54;;;;;;;9.900002;7.649999;;;;;;;11.86;86.17188;95585.66;;;;
2019/06/02 01:13:56;;;;;;;9.900002;7.649999;;;;;;;11.86;86.17188;95585.66;;;;
2019/06/02 01:14:57;;;;;;;9.900002;7.649999;;;;;;;11.86;86.17188;95585.66;;;;
2019/06/02 01:15:58;;;;;;;9.900002;7.649999;;;;;;;11.86;86.17188;95585.66;;;;
2019/06/02 01:16:59;;;;;;;9.900002;7.649999;;;;;;;11.86;86.17188;95585.66;;;;
2019/06/02 01:18:00;;;;;;;9.900002;7.649999;;;;;;;11.86;86.17188;95585.66;;;;
2019/06/02 01:19:01;;;;;;;9.900002;7.649999;;;;;;;11.86;86.17188;95585.66;;;;
2019/06/02 01:20:03;;;;;;;9.900002;7.649999;;;;;;;11.86;86.17188;95585.66;;;;
2019/06/02 01:21:04;;;;;;;9.900002;7.649999;;;;;;;11.86;86.17188;95585.66;;;;
2019/06/02 01:22:05;;;;;;;9.900002;7.649999;;;;;;;11.86;86.17188;95585.66;;;;
2019/06/02 01:23:06;;;;;;;9.450001;7.95;;;;;;;11.76;86.85645;95581.38;;;;
2019/06/02 01:24:07;;;;;;;9.450001;7.95;;;;;;;11.76;86.85645;95581.38;;;;
2019/06/02 01:25:09;;;;;;;9.450001;7.95;;;;;;;11.76;86.85645;95581.38;;;;
2019/06/02 01:26:10;;;;;;;9.450001;7.95;;;;;;;11.76;86.85645;95581.38;;;;
2019/06/02 01:27:11;;;;;;;9.450001;7.95;;;;;;;11.76;86.85645;95581.38;;;;
2019/06/02 01:28:13;;;;;;;9.450001;7.95;;;;;;;11.76;86.85645;95581.38;;;;
2019/06/02 01:29:14;;;;;;;9.450001;7.95;;;;;;;11.76;86.85645;95581.38;;;;
2019/06/02 01:30:16;;;;;;;9.450001;7.95;;;;;;;11.76;86.85645;95581.38;;;;
2019/06/02 01:31:17;;;;;;;9.450001;7.95;;;;;;;11.76;86.85645;95581.38;;;;
2019/06/02 01:32:18;;;;;;;9.450001;7.95;;;;;;;11.76;86.85645;95581.38;;;;
2019/06/02 01:33:19;;;;;;;9.450001;7.95;;;;;;;11.76;86.85645;95581.38;;;;
2019/06/02 01:34:20;;;;;;;11.05;8.2;;;;;;;11.62;87.35254;95572.35;;;;
2019/06/02 01:35:21;;;;;;;11.05;8.2;;;;;;;11.62;87.35254;95572.35;;;;
2019/06/02 01:36:22;;;;;;;11.05;8.2;;;;;;;11.62;87.35254;95572.35;;;;
2019/06/02 01:37:23;;;;;;;11.05;8.2;;;;;;;11.62;87.35254;95572.35;;;;
2019/06/02 01:38:25;;;;;;;11.05;8.2;;;;;;;11.62;87.35254;95572.35;;;;
2019/06/02 01:39:26;;;;;;;11.05;8.2;;;;;;;11.62;87.35254;95572.35;;;;
2019/06/02 01:40:27;;;;;;;11.05;8.2;;;;;;;11.62;87.35254;95572.35;;;;
2019/06/02 01:41:28;;;;;;;11.05;8.2;;;;;;;11.62;87.35254;95572.35;;;;
2019/06/02 01:42:29;;;;;;;11.05;8.2;;;;;;;11.62;87.35254;95572.35;;;;
2019/06/02 01:43:30;;;;;;;11.05;8.2;;;;;;;11.62;87.35254;95572.35;;;;
2019/06/02 01:44:32;;;;;;;8.5;7.7;;;;;;;11.55;87.94824;95571.51;;;;
2019/06/02 01:45:33;;;;;;;8.5;7.7;;;;;;;11.55;87.94824;95571.51;;;;
2019/06/02 01:46:34;;;;;;;8.5;7.7;;;;;;;11.55;87.94824;95571.51;;;;
2019/06/02 01:47:35;;;;;;;8.5;7.7;;;;;;;11.55;87.94824;95571.51;;;;
2019/06/02 01:48:36;;;;;;;8.5;7.7;;;;;;;11.55;87.94824;95571.51;;;;
2019/06/02 01:49:37;;;;;;;8.5;7.7;;;;;;;11.55;87.94824;95571.51;;;;
2019/06/02 01:50:38;;;;;;;8.5;7.7;;;;;;;11.55;87.94824;95571.51;;;;
2019/06/02 01:51:40;;;;;;;8.5;7.7;;;;;;;11.55;87.94824;95571.51;;;;
2019/06/02 01:52:41;;;;;;;8.5;7.7;;;;;;;11.55;87.94824;95571.51;;;;
2019/06/02 01:53:43;;;;;;;8.5;7.7;;;;;;;11.55;87.94824;95571.51;;;;
2019/06/02 01:54:44;;;;;;;9.1;7.6;;;;;;;11.43;88.49805;95565.39;;;;
2019/06/02 01:55:45;;;;;;;9.1;7.6;;;;;;;11.43;88.49805;95565.39;;;;
2019/06/02 01:56:46;;;;;;;9.1;7.6;;;;;;;11.43;88.49805;95565.39;;;;
2019/06/02 01:57:47;;;;;;;9.1;7.6;;;;;;;11.43;88.49805;95565.39;;;;
2019/06/02 01:58:49;;;;;;;9.1;7.6;;;;;;;11.43;88.49805;95565.39;;;;
2019/06/02 01:59:50;;;;;;;9.1;7.6;;;;;;;11.43;88.49805;95565.39;;;;
2019/06/02 02:00:51;;;;;;;9.1;7.6;;;;;;;11.43;88.49805;95565.39;;;;
2019/06/02 02:01:52;;;;;;;9.1;7.6;;;;;;;11.43;88.49805;95565.39;;;;
2019/06/02 02:02:53;;;;;;;9.1;7.6;;;;;;;11.43;88.49805;95565.39;;;;
2019/06/02 02:03:54;;;;;;;9.1;7.6;;;;;;;11.43;88.49805;95565.39;;;;
2019/06/02 02:04:56;;;;;;;9.1;7.6;;;;;;;11.43;88.49805;95565.39;;;;
2019/06/02 02:05:57;;;;;;;8.049999;7.35;;;;;;;11.42;89.14941;95555.51;;;;
2019/06/02 02:06:58;;;;;;;8.049999;7.35;;;;;;;11.42;89.14941;95555.51;;;;
2019/06/02 02:07:59;;;;;;;8.049999;7.35;;;;;;;11.42;89.14941;95555.51;;;;
2019/06/02 02:09:00;;;;;;;8.049999;7.35;;;;;;;11.42;89.14941;95555.51;;;;
2019/06/02 02:10:02;;;;;;;8.049999;7.35;;;;;;;11.42;89.14941;95555.51;;;;
2019/06/02 02:11:03;;;;;;;8.049999;7.35;;;;;;;11.42;89.14941;95555.51;;;;
2019/06/02 02:12:05;;;;;;;8.049999;7.35;;;;;;;11.42;89.14941;95555.51;;;;
2019/06/02 02:13:06;;;;;;;8.049999;7.35;;;;;;;11.42;89.14941;95555.51;;;;
2019/06/02 02:14:07;;;;;;;8.049999;7.35;;;;;;;11.42;89.14941;95555.51;;;;
2019/06/02 02:15:08;;;;;;;8.049999;7.35;;;;;;;11.42;89.14941;95555.51;;;;
2019/06/02 02:16:10;;;;;;;8.049999;7.35;;;;;;;11.42;89.14941;95555.51;;;;
2019/06/02 02:17:11;;;;;;;8.049999;7.35;;;;;;;11.42;89.14941;95555.51;;;;
2019/06/02 02:18:12;;;;;;;8.049999;7.35;;;;;;;11.42;89.14941;95555.51;;;;
2019/06/02 02:19:13;;;;;;;8.049999;7.35;;;;;;;11.42;89.14941;95555.51;;;;
2019/06/02 02:20:14;;;;;;;8.049999;7.35;;;;;;;11.42;89.14941;95555.51;;;;
2019/06/02 02:21:16;;;;;;;8.049999;7.35;;;;;;;11.42;89.14941;95555.51;;;;
2019/06/02 02:22:17;;;;;;;8.049999;7.35;;;;;;;11.42;89.14941;95555.51;;;;
2019/06/02 02:23:18;;;;;;;8.049999;7.35;;;;;;;11.42;89.14941;95555.51;;;;
2019/06/02 02:24:19;;;;;;;8.049999;7.35;;;;;;;11.42;89.14941;95555.51;;;;
2019/06/02 02:25:20;;;;;;;8.049999;7.35;;;;;;;11.42;89.14941;95555.51;;;;
2019/06/02 02:26:22;;;;;;;8.049999;7.35;;;;;;;11.42;89.14941;95555.51;;;;
2019/06/02 02:27:23;;;;;;;10.6;8;;;;;;;11.37;90.35645;95552.27;;;;
2019/06/02 02:28:24;;;;;;;10.6;8;;;;;;;11.37;90.35645;95552.27;;;;
2019/06/02 02:29:25;;;;;;;10.6;8;;;;;;;11.37;90.35645;95552.27;;;;
2019/06/02 02:30:26;;;;;;;10.6;8;;;;;;;11.37;90.35645;95552.27;;;;
2019/06/02 02:31:27;;;;;;;10.6;8;;;;;;;11.37;90.35645;95552.27;;;;
2019/06/02 02:32:28;;;;;;;10.6;8;;;;;;;11.37;90.35645;95552.27;;;;
2019/06/02 02:33:29;;;;;;;10.6;8;;;;;;;11.37;90.35645;95552.27;;;;
2019/06/02 02:34:30;;;;;;;10.6;8;;;;;;;11.37;90.35645;95552.27;;;;
2019/06/02 02:35:31;;;;;;;10.6;8;;;;;;;11.37;90.35645;95552.27;;;;
2019/06/02 02:36:33;;;;;;;10.6;8;;;;;;;11.37;90.35645;95552.27;;;;
2019/06/02 02:37:34;;;;;;;8;7.300001;;;;;;;11.32;90.79492;95547.17;;;;
2019/06/02 02:38:35;;;;;;;8;7.300001;;;;;;;11.32;90.79492;95547.17;;;;
2019/06/02 02:39:36;;;;;;;8;7.300001;;;;;;;11.32;90.79492;95547.17;;;;
2019/06/02 02:40:37;;;;;;;8;7.300001;;;;;;;11.32;90.79492;95547.17;;;;
2019/06/02 02:41:38;;;;;;;8;7.300001;;;;;;;11.32;90.79492;95547.17;;;;
2019/06/02 02:42:39;;;;;;;8;7.300001;;;;;;;11.32;90.79492;95547.17;;;;
2019/06/02 02:43:40;;;;;;;8;7.300001;;;;;;;11.32;90.79492;95547.17;;;;
2019/06/02 02:44:42;;;;;;;8;7.300001;;;;;;;11.32;90.79492;95547.17;;;;
2019/06/02 02:45:43;;;;;;;8;7.300001;;;;;;;11.32;90.79492;95547.17;;;;
2019/06/02 02:46:44;;;;;;;8;7.300001;;;;;;;11.32;90.79492;95547.17;;;;
2019/06/02 02:47:45;;;;;;;12.85;7.65;;;;;;;11.32;91.125;95541.35;;;;
2019/06/02 02:48:46;;;;;;;12.85;7.65;;;;;;;11.32;91.125;95541.35;;;;
2019/06/02 02:49:47;;;;;;;12.85;7.65;;;;;;;11.32;91.125;95541.35;;;;
2019/06/02 02:50:48;;;;;;;12.85;7.65;;;;;;;11.32;91.125;95541.35;;;;
2019/06/02 02:51:49;;;;;;;12.85;7.65;;;;;;;11.32;91.125;95541.35;;;;
2019/06/02 02:52:50;;;;;;;12.85;7.65;;;;;;;11.32;91.125;95541.35;;;;
2019/06/02 02:53:51;;;;;;;12.85;7.65;;;;;;;11.32;91.125;95541.35;;;;
2019/06/02 02:54:53;;;;;;;12.85;7.65;;;;;;;11.32;91.125;95541.35;;;;
2019/06/02 02:55:54;;;;;;;12.85;7.65;;;;;;;11.32;91.125;95541.35;;;;
2019/06/02 02:56:55;;;;;;;12.85;7.65;;;;;;;11.32;91.125;95541.35;;;;
2019/06/02 02:57:56;;;;;;;12.85;7.65;;;;;;;11.32;91.125;95541.35;;;;
2019/06/02 02:58:57;;;;;;;7.849999;7.149999;;;;;;;11.26;91.49512;95536.87;;;;
2019/06/02 02:59:58;;;;;;;7.849999;7.149999;;;;;;;11.26;91.49512;95536.87;;;;
2019/06/02 03:00:59;;;;;;;7.849999;7.149999;;;;;;;11.26;91.49512;95536.87;;;;
2019/06/02 03:02:00;;;;;;;7.849999;7.149999;;;;;;;11.26;91.49512;95536.87;;;;
2019/06/02 03:03:01;;;;;;;7.849999;7.149999;;;;;;;11.26;91.49512;95536.87;;;;
2019/06/02 03:04:03;;;;;;;7.849999;7.149999;;;;;;;11.26;91.49512;95536.87;;;;
2019/06/02 03:05:04;;;;;;;7.849999;7.149999;;;;;;;11.26;91.49512;95536.87;;;;
2019/06/02 03:06:05;;;;;;;7.849999;7.149999;;;;;;;11.26;91.49512;95536.87;;;;
2019/06/02 03:07:06;;;;;;;7.849999;7.149999;;;;;;;11.26;91.49512;95536.87;;;;
2019/06/02 03:08:07;;;;;;;7.849999;7.149999;;;;;;;11.26;91.49512;95536.87;;;;
2019/06/02 03:09:08;;;;;;;8.599999;7.55;;;;;;;11.27;91.82617;95528.23;;;;
2019/06/02 03:10:09;;;;;;;8.599999;7.55;;;;;;;11.27;91.82617;95528.23;;;;
2019/06/02 03:11:10;;;;;;;8.599999;7.55;;;;;;;11.27;91.82617;95528.23;;;;
2019/06/02 03:12:11;;;;;;;8.599999;7.55;;;;;;;11.27;91.82617;95528.23;;;;
2019/06/02 03:13:12;;;;;;;8.599999;7.55;;;;;;;11.27;91.82617;95528.23;;;;
2019/06/02 03:14:13;;;;;;;8.599999;7.55;;;;;;;11.27;91.82617;95528.23;;;;
2019/06/02 03:15:14;;;;;;;8.599999;7.55;;;;;;;11.27;91.82617;95528.23;;;;
2019/06/02 03:16:16;;;;;;;8.599999;7.55;;;;;;;11.27;91.82617;95528.23;;;;
2019/06/02 03:17:17;;;;;;;8.599999;7.55;;;;;;;11.27;91.82617;95528.23;;;;
2019/06/02 03:18:18;;;;;;;8.599999;7.55;;;;;;;11.27;91.82617;95528.23;;;;
2019/06/02 03:19:19;;;;;;;7.85;7.050002;;;;;;;11.2;92.08887;95530.65;;;;
2019/06/02 03:20:20;;;;;;;7.85;7.050002;;;;;;;11.2;92.08887;95530.65;;;;
2019/06/02 03:21:21;;;;;;;7.85;7.050002;;;;;;;11.2;92.08887;95530.65;;;;
2019/06/02 03:22:22;;;;;;;7.85;7.050002;;;;;;;11.2;92.08887;95530.65;;;;
2019/06/02 03:23:23;;;;;;;7.85;7.050002;;;;;;;11.2;92.08887;95530.65;;;;
2019/06/02 03:24:24;;;;;;;7.85;7.050002;;;;;;;11.2;92.08887;95530.65;;;;
2019/06/02 03:25:25;;;;;;;7.85;7.050002;;;;;;;11.2;92.08887;95530.65;;;;
2019/06/02 03:26:27;;;;;;;7.85;7.050002;;;;;;;11.2;92.08887;95530.65;;;;
2019/06/02 03:27:28;;;;;;;7.85;7.050002;;;;;;;11.2;92.08887;95530.65;;;;
2019/06/02 03:28:29;;;;;;;7.85;7.050002;;;;;;;11.2;92.08887;95530.65;;;;
2019/06/02 03:29:30;;;;;;;7.85;7.050002;;;;;;;11.2;92.08887;95530.65;;;;
2019/06/02 03:30:31;;;;;;;10.05;7.65;;;;;;;11.23;92.35254;95526.53;;;;
2019/06/02 03:31:32;;;;;;;10.05;7.65;;;;;;;11.23;92.35254;95526.53;;;;
2019/06/02 03:32:33;;;;;;;10.05;7.65;;;;;;;11.23;92.35254;95526.53;;;;
2019/06/02 03:33:34;;;;;;;10.05;7.65;;;;;;;11.23;92.35254;95526.53;;;;
2019/06/02 03:34:35;;;;;;;10.05;7.65;;;;;;;11.23;92.35254;95526.53;;;;
2019/06/02 03:35:36;;;;;;;10.05;7.65;;;;;;;11.23;92.35254;95526.53;;;;
2019/06/02 03:36:37;;;;;;;10.05;7.65;;;;;;;11.23;92.35254;95526.53;;;;
2019/06/02 03:37:38;;;;;;;10.05;7.65;;;;;;;11.23;92.35254;95526.53;;;;
2019/06/02 03:38:39;;;;;;;10.05;7.65;;;;;;;11.23;92.35254;95526.53;;;;
2019/06/02 03:39:40;;;;;;;10.05;7.65;;;;;;;11.23;92.35254;95526.53;;;;
2019/06/02 03:40:42;;;;;;;8.25;7.450001;;;;;;;11.22;92.54297;95523.97;;;;
2019/06/02 03:41:43;;;;;;;8.25;7.450001;;;;;;;11.22;92.54297;95523.97;;;;
2019/06/02 03:42:44;;;;;;;8.25;7.450001;;;;;;;11.22;92.54297;95523.97;;;;
2019/06/02 03:43:45;;;;;;;8.25;7.450001;;;;;;;11.22;92.54297;95523.97;;;;
2019/06/02 03:44:46;;;;;;;8.25;7.450001;;;;;;;11.22;92.54297;95523.97;;;;
2019/06/02 03:45:47;;;;;;;8.25;7.450001;;;;;;;11.22;92.54297;95523.97;;;;
2019/06/02 03:46:48;;;;;;;8.25;7.450001;;;;;;;11.22;92.54297;95523.97;;;;
2019/06/02 03:47:49;;;;;;;8.25;7.450001;;;;;;;11.22;92.54297;95523.97;;;;
2019/06/02 03:48:50;;;;;;;8.25;7.450001;;;;;;;11.22;92.54297;95523.97;;;;
2019/06/02 03:49:51;;;;;;;8.25;7.450001;;;;;;;11.22;92.54297;95523.97;;;;
2019/06/02 03:50:52;;;;;;;8.25;7.450001;;;;;;;11.22;92.54297;95523.97;;;;
2019/06/02 03:51:53;;;;;;;7.55;6.849999;;;;;;;11.32;92.75488;95529.71;;;;
2019/06/02 03:52:54;;;;;;;7.55;6.849999;;;;;;;11.32;92.75488;95529.71;;;;
2019/06/02 03:53:55;;;;;;;7.55;6.849999;;;;;;;11.32;92.75488;95529.71;;;;
2019/06/02 03:54:57;;;;;;;7.55;6.849999;;;;;;;11.32;92.75488;95529.71;;;;
2019/06/02 03:55:58;;;;;;;7.55;6.849999;;;;;;;11.32;92.75488;95529.71;;;;
2019/06/02 03:56:59;;;;;;;7.55;6.849999;;;;;;;11.32;92.75488;95529.71;;;;
2019/06/02 03:58:00;;;;;;;7.55;6.849999;;;;;;;11.32;92.75488;95529.71;;;;
2019/06/02 03:59:01;;;;;;;7.55;6.849999;;;;;;;11.32;92.75488;95529.71;;;;
2019/06/02 04:00:02;;;;;;;7.55;6.849999;;;;;;;11.32;92.75488;95529.71;;;;
2019/06/02 04:01:03;;;;;;;7.55;6.849999;;;;;;;11.32;92.75488;95529.71;;;;
2019/06/02 04:02:04;;;;;;;9.1;7.149999;;;;;;;11.35;92.87988;95527.76;;;;
2019/06/02 04:03:05;;;;;;;9.1;7.149999;;;;;;;11.35;92.87988;95527.76;;;;
2019/06/02 04:04:06;;;;;;;9.1;7.149999;;;;;;;11.35;92.87988;95527.76;;;;
2019/06/02 04:05:08;;;;;;;9.1;7.149999;;;;;;;11.35;92.87988;95527.76;;;;
2019/06/02 04:06:09;;;;;;;9.1;7.149999;;;;;;;11.35;92.87988;95527.76;;;;
2019/06/02 04:07:10;;;;;;;9.1;7.149999;;;;;;;11.35;92.87988;95527.76;;;;
2019/06/02 04:08:11;;;;;;;9.1;7.149999;;;;;;;11.35;92.87988;95527.76;;;;
2019/06/02 04:09:12;;;;;;;9.1;7.149999;;;;;;;11.35;92.87988;95527.76;;;;
2019/06/02 04:10:13;;;;;;;9.1;7.149999;;;;;;;11.35;92.87988;95527.76;;;;
2019/06/02 04:11:15;;;;;;;9.1;7.149999;;;;;;;11.35;92.87988;95527.76;;;;
2019/06/02 04:12:16;;;;;;;8.25;7.45;;;;;;;11.48;93.11035;95535.24;;;;
2019/06/02 04:13:17;;;;;;;8.25;7.45;;;;;;;11.48;93.11035;95535.24;;;;
2019/06/02 04:14:18;;;;;;;8.25;7.45;;;;;;;11.48;93.11035;95535.24;;;;
2019/06/02 04:15:19;;;;;;;8.25;7.45;;;;;;;11.48;93.11035;95535.24;;;;
2019/06/02 04:16:20;;;;;;;8.25;7.45;;;;;;;11.48;93.11035;95535.24;;;;
2019/06/02 04:17:21;;;;;;;8.25;7.45;;;;;;;11.48;93.11035;95535.24;;;;
2019/06/02 04:18:23;;;;;;;8.25;7.45;;;;;;;11.48;93.11035;95535.24;;;;
2019/06/02 04:19:24;;;;;;;8.25;7.45;;;;;;;11.48;93.11035;95535.24;;;;
2019/06/02 04:20:25;;;;;;;8.25;7.45;;;;;;;11.48;93.11035;95535.24;;;;
2019/06/02 04:21:26;;;;;;;8.25;7.45;;;;;;;11.48;93.11035;95535.24;;;;
2019/06/02 04:22:27;;;;;;;8.25;7.45;;;;;;;11.48;93.11035;95535.24;;;;
2019/06/02 04:23:28;;;;;;;8.400002;7.500001;;;;;;;11.54;93.26953;95528.49;;;;
2019/06/02 04:24:29;;;;;;;8.400002;7.500001;;;;;;;11.54;93.26953;95528.49;;;;
2019/06/02 04:25:33;;;;;;;8.400002;7.500001;;;;;;;11.54;93.26953;95528.49;;;;
2019/06/02 04:26:34;;;;;;;8.400002;7.500001;;;;;;;11.54;93.26953;95528.49;;;;
2019/06/02 04:27:35;;;;;;;8.400002;7.500001;;;;;;;11.54;93.26953;95528.49;;;;
2019/06/02 04:28:36;;;;;;;8.400002;7.500001;;;;;;;11.54;93.26953;95528.49;;;;
2019/06/02 04:29:37;;;;;;;8.400002;7.500001;;;;;;;11.54;93.26953;95528.49;;;;
2019/06/02 04:30:38;;;;;;;8.400002;7.500001;;;;;;;11.54;93.26953;95528.49;;;;
2019/06/02 04:31:39;;;;;;;8.400002;7.500001;;;;;;;11.54;93.26953;95528.49;;;;
2019/06/02 04:32:40;;;;;;;8.400002;7.500001;;;;;;;11.54;93.26953;95528.49;;;;
2019/06/02 04:33:42;;;;;;;7.900001;7.200001;;;;;;;11.71;93.51855;95527.28;;;;
2019/06/02 04:34:43;;;;;;;7.900001;7.200001;;;;;;;11.71;93.51855;95527.28;;;;
2019/06/02 04:35:44;;;;;;;7.900001;7.200001;;;;;;;11.71;93.51855;95527.28;;;;
2019/06/02 04:36:45;;;;;;;7.900001;7.200001;;;;;;;11.71;93.51855;95527.28;;;;
2019/06/02 04:37:46;;;;;;;7.900001;7.200001;;;;;;;11.71;93.51855;95527.28;;;;
2019/06/02 04:38:47;;;;;;;7.900001;7.200001;;;;;;;11.71;93.51855;95527.28;;;;
2019/06/02 04:39:48;;;;;;;7.900001;7.200001;;;;;;;11.71;93.51855;95527.28;;;;
2019/06/02 04:40:49;;;;;;;7.900001;7.200001;;;;;;;11.71;93.51855;95527.28;;;;
2019/06/02 04:41:50;;;;;;;7.900001;7.200001;;;;;;;11.71;93.51855;95527.28;;;;
2019/06/02 04:42:51;;;;;;;7.900001;7.200001;;;;;;;11.71;93.51855;95527.28;;;;
2019/06/02 04:43:52;;;;;;;7.900001;7.200001;;;;;;;11.71;93.51855;95527.28;;;;
2019/06/02 04:44:53;;;;;;;7.45;6.75;;;;;;;11.88;93.66211;95520.06;;;;
2019/06/02 04:45:55;;;;;;;7.45;6.75;;;;;;;11.88;93.66211;95520.06;;;;
2019/06/02 04:46:56;;;;;;;7.45;6.75;;;;;;;11.88;93.66211;95520.06;;;;
2019/06/02 04:47:57;;;;;;;7.45;6.75;;;;;;;11.88;93.66211;95520.06;;;;
2019/06/02 04:48:58;;;;;;;7.45;6.75;;;;;;;11.88;93.66211;95520.06;;;;
2019/06/02 04:49:59;;;;;;;7.45;6.75;;;;;;;11.88;93.66211;95520.06;;;;
2019/06/02 04:51:00;;;;;;;7.45;6.75;;;;;;;11.88;93.66211;95520.06;;;;
2019/06/02 04:52:01;;;;;;;7.45;6.75;;;;;;;11.88;93.66211;95520.06;;;;
2019/06/02 04:53:02;;;;;;;7.45;6.75;;;;;;;11.88;93.66211;95520.06;;;;
2019/06/02 04:54:03;;;;;;;7.45;6.75;;;;;;;11.88;93.66211;95520.06;;;;
2019/06/02 04:55:04;;;;;;;7.600001;6.85;;;;;;;12.19;93.80469;95522.36;;;;
2019/06/02 04:56:05;;;;;;;7.600001;6.85;;;;;;;12.19;93.80469;95522.36;;;;
2019/06/02 04:57:06;;;;;;;7.600001;6.85;;;;;;;12.19;93.80469;95522.36;;;;
2019/06/02 04:58:07;;;;;;;7.600001;6.85;;;;;;;12.19;93.80469;95522.36;;;;
2019/06/02 04:59:08;;;;;;;7.600001;6.85;;;;;;;12.19;93.80469;95522.36;;;;
2019/06/02 05:00:10;;;;;;;7.600001;6.85;;;;;;;12.19;93.80469;95522.36;;;;
2019/06/02 05:01:11;;;;;;;7.600001;6.85;;;;;;;12.19;93.80469;95522.36;;;;
2019/06/02 05:02:12;;;;;;;7.600001;6.85;;;;;;;12.19;93.80469;95522.36;;;;
2019/06/02 05:03:13;;;;;;;7.600001;6.85;;;;;;;12.19;93.80469;95522.36;;;;
2019/06/02 05:04:14;;;;;;;7.600001;6.85;;;;;;;12.19;93.80469;95522.36;;;;
2019/06/02 05:05:15;;;;;;;6.65;6.05;;;;;;;12.58;93.68359;95530.98;;;;
2019/06/02 05:06:16;;;;;;;6.65;6.05;;;;;;;12.58;93.68359;95530.98;;;;
2019/06/02 05:07:17;;;;;;;6.65;6.05;;;;;;;12.58;93.68359;95530.98;;;;
2019/06/02 05:08:18;;;;;;;6.65;6.05;;;;;;;12.58;93.68359;95530.98;;;;
2019/06/02 05:09:19;;;;;;;6.65;6.05;;;;;;;12.58;93.68359;95530.98;;;;
2019/06/02 05:10:20;;;;;;;6.65;6.05;;;;;;;12.58;93.68359;95530.98;;;;
2019/06/02 05:11:21;;;;;;;6.65;6.05;;;;;;;12.58;93.68359;95530.98;;;;
2019/06/02 05:12:22;;;;;;;6.65;6.05;;;;;;;12.58;93.68359;95530.98;;;;
2019/06/02 05:13:23;;;;;;;6.65;6.05;;;;;;;12.58;93.68359;95530.98;;;;
2019/06/02 05:14:25;;;;;;;6.65;6.05;;;;;;;12.58;93.68359;95530.98;;;;
2019/06/02 05:15:26;;;;;;;6.65;6.05;;;;;;;12.58;93.68359;95530.98;;;;
2019/06/02 05:16:27;;;;;;;6.400001;5.799999;;;;;;;13.16;93.43359;95539.67;;;;
2019/06/02 05:17:28;;;;;;;6.400001;5.799999;;;;;;;13.16;93.43359;95539.67;;;;
2019/06/02 05:18:29;;;;;;;6.400001;5.799999;;;;;;;13.16;93.43359;95539.67;;;;
2019/06/02 05:19:30;;;;;;;6.400001;5.799999;;;;;;;13.16;93.43359;95539.67;;;;
2019/06/02 05:20:31;;;;;;;6.400001;5.799999;;;;;;;13.16;93.43359;95539.67;;;;
2019/06/02 05:21:32;;;;;;;6.400001;5.799999;;;;;;;13.16;93.43359;95539.67;;;;
2019/06/02 05:22:33;;;;;;;6.400001;5.799999;;;;;;;13.16;93.43359;95539.67;;;;
2019/06/02 05:23:34;;;;;;;6.400001;5.799999;;;;;;;13.16;93.43359;95539.67;;;;
2019/06/02 05:24:35;;;;;;;6.400001;5.799999;;;;;;;13.16;93.43359;95539.67;;;;
2019/06/02 05:25:36;;;;;;;6.400001;5.799999;;;;;;;13.16;93.43359;95539.67;;;;
2019/06/02 05:26:38;;;;;;;5.950001;5.450001;;;;;;;13.77;93.02539;95541.44;;;;
2019/06/02 05:27:39;;;;;;;5.950001;5.450001;;;;;;;13.77;93.02539;95541.44;;;;
2019/06/02 05:28:40;;;;;;;5.950001;5.450001;;;;;;;13.77;93.02539;95541.44;;;;
2019/06/02 05:29:41;;;;;;;5.950001;5.450001;;;;;;;13.77;93.02539;95541.44;;;;